sensor_id;sensor_type;location;lat;lon;timestamp;P1;durP1;ratioP1;P2;durP2;ratioP2
22144;SDS011;11238;48.730;11.566;2022-12-18T00:01:17;90.40;;;35.35;;
22144;SDS011;11238;48.730;11.566;2022-12-18T00:03:45;88.18;;;33.92;;
22144;SDS011;11238;48.730;11.566;2022-12-18T00:06:13;87.07;;;33.83;;
22144;SDS011;11238;48.730;11.566;2022-12-18T00:08:40;80.80;;;32.50;;
22144;SDS011;11238;48.730;11.566;2022-12-18T00:11:07;92.68;;;34.22;;
22144;SDS011;11238;48.730;11.566;2022-12-18T00:13:35;94.25;;;34.80;;
22144;SDS011;11238;48.730;11.566;2022-12-18T00:16:02;81.57;;;33.13;;
22144;SDS011;11238;48.730;11.566;2022-12-18T00:18:33;90.05;;;33.47;;
22144;SDS011;11238;48.730;11.566;2022-12-18T00:20:59;94.65;;;32.28;;
22144;SDS011;11238;48.730;11.566;2022-12-18T00:23:27;90.57;;;33.03;;
22144;SDS011;11238;48.730;11.566;2022-12-18T00:25:54;86.28;;;32.90;;
22144;SDS011;11238;48.730;11.566;2022-12-18T00:28:23;84.20;;;31.52;;
22144;SDS011;11238;48.730;11.566;2022-12-18T00:30:49;90.45;;;32.88;;
22144;SDS011;11238;48.730;11.566;2022-12-18T00:33:16;86.93;;;33.08;;
22144;SDS011;11238;48.730;11.566;2022-12-18T00:35:43;88.60;;;32.33;;
22144;SDS011;11238;48.730;11.566;2022-12-18T00:38:09;89.30;;;33.60;;
22144;SDS011;11238;48.730;11.566;2022-12-18T00:40:35;81.90;;;30.75;;
22144;SDS011;11238;48.730;11.566;2022-12-18T00:43:01;80.30;;;30.92;;
22144;SDS011;11238;48.730;11.566;2022-12-18T00:45:29;86.80;;;31.65;;
22144;SDS011;11238;48.730;11.566;2022-12-18T00:47:56;84.35;;;31.27;;
22144;SDS011;11238;48.730;11.566;2022-12-18T00:50:23;87.05;;;31.02;;
22144;SDS011;11238;48.730;11.566;2022-12-18T00:52:50;84.75;;;29.98;;
22144;SDS011;11238;48.730;11.566;2022-12-18T00:55:16;83.50;;;29.27;;
22144;SDS011;11238;48.730;11.566;2022-12-18T00:57:42;77.07;;;29.77;;
22144;SDS011;11238;48.730;11.566;2022-12-18T01:00:10;80.60;;;29.50;;
22144;SDS011;11238;48.730;11.566;2022-12-18T01:02:37;88.45;;;30.90;;
22144;SDS011;11238;48.730;11.566;2022-12-18T01:05:05;77.78;;;29.58;;
22144;SDS011;11238;48.730;11.566;2022-12-18T01:07:31;78.60;;;29.23;;
22144;SDS011;11238;48.730;11.566;2022-12-18T01:09:57;76.45;;;28.52;;
22144;SDS011;11238;48.730;11.566;2022-12-18T01:12:25;81.75;;;29.83;;
22144;SDS011;11238;48.730;11.566;2022-12-18T01:14:51;77.57;;;29.52;;
22144;SDS011;11238;48.730;11.566;2022-12-18T01:17:17;72.93;;;27.00;;
22144;SDS011;11238;48.730;11.566;2022-12-18T01:19:42;83.32;;;29.55;;
22144;SDS011;11238;48.730;11.566;2022-12-18T01:22:09;85.35;;;30.58;;
22144;SDS011;11238;48.730;11.566;2022-12-18T01:24:35;83.50;;;30.50;;
22144;SDS011;11238;48.730;11.566;2022-12-18T01:27:01;77.03;;;29.58;;
22144;SDS011;11238;48.730;11.566;2022-12-18T01:29:27;81.78;;;29.95;;
22144;SDS011;11238;48.730;11.566;2022-12-18T01:31:54;81.00;;;29.27;;
22144;SDS011;11238;48.730;11.566;2022-12-18T01:34:21;79.13;;;28.98;;
22144;SDS011;11238;48.730;11.566;2022-12-18T01:36:48;75.43;;;29.52;;
22144;SDS011;11238;48.730;11.566;2022-12-18T01:39:14;78.22;;;29.48;;
22144;SDS011;11238;48.730;11.566;2022-12-18T01:41:40;80.68;;;29.13;;
22144;SDS011;11238;48.730;11.566;2022-12-18T01:47:17;76.80;;;28.13;;
22144;SDS011;11238;48.730;11.566;2022-12-18T01:49:49;83.68;;;28.77;;
22144;SDS011;11238;48.730;11.566;2022-12-18T01:52:15;78.50;;;29.65;;
22144;SDS011;11238;48.730;11.566;2022-12-18T01:54:42;76.38;;;28.98;;
22144;SDS011;11238;48.730;11.566;2022-12-18T01:57:09;76.80;;;28.45;;
22144;SDS011;11238;48.730;11.566;2022-12-18T01:59:35;84.68;;;29.83;;
22144;SDS011;11238;48.730;11.566;2022-12-18T02:02:02;84.22;;;30.00;;
22144;SDS011;11238;48.730;11.566;2022-12-18T02:04:29;81.80;;;29.08;;
22144;SDS011;11238;48.730;11.566;2022-12-18T02:06:59;81.13;;;28.98;;
22144;SDS011;11238;48.730;11.566;2022-12-18T02:09:41;74.65;;;27.65;;
22144;SDS011;11238;48.730;11.566;2022-12-18T02:12:31;73.70;;;27.55;;
22144;SDS011;11238;48.730;11.566;2022-12-18T02:15:25;77.82;;;28.52;;
22144;SDS011;11238;48.730;11.566;2022-12-18T02:18:03;74.35;;;28.15;;
22144;SDS011;11238;48.730;11.566;2022-12-18T02:20:43;79.82;;;28.95;;
22144;SDS011;11238;48.730;11.566;2022-12-18T02:26:05;76.43;;;28.27;;
22144;SDS011;11238;48.730;11.566;2022-12-18T02:28:46;79.18;;;26.35;;
22144;SDS011;11238;48.730;11.566;2022-12-18T02:31:21;71.65;;;26.65;;
22144;SDS011;11238;48.730;11.566;2022-12-18T02:33:51;69.97;;;25.23;;
22144;SDS011;11238;48.730;11.566;2022-12-18T02:36:20;62.22;;;24.00;;
22144;SDS011;11238;48.730;11.566;2022-12-18T02:38:48;65.32;;;23.88;;
22144;SDS011;11238;48.730;11.566;2022-12-18T02:41:16;49.75;;;17.75;;
22144;SDS011;11238;48.730;11.566;2022-12-18T02:43:48;55.20;;;22.17;;
22144;SDS011;11238;48.730;11.566;2022-12-18T02:46:27;59.55;;;23.45;;
22144;SDS011;11238;48.730;11.566;2022-12-18T02:49:00;58.60;;;21.83;;
22144;SDS011;11238;48.730;11.566;2022-12-18T02:51:38;58.47;;;22.58;;
22144;SDS011;11238;48.730;11.566;2022-12-18T02:55:07;60.95;;;22.55;;
22144;SDS011;11238;48.730;11.566;2022-12-18T03:00:12;68.25;;;22.70;;
22144;SDS011;11238;48.730;11.566;2022-12-18T03:02:45;63.17;;;22.13;;
22144;SDS011;11238;48.730;11.566;2022-12-18T03:05:24;62.85;;;21.95;;
22144;SDS011;11238;48.730;11.566;2022-12-18T03:08:08;59.80;;;22.50;;
22144;SDS011;11238;48.730;11.566;2022-12-18T03:10:43;61.83;;;22.45;;
22144;SDS011;11238;48.730;11.566;2022-12-18T03:13:16;56.27;;;22.37;;
22144;SDS011;11238;48.730;11.566;2022-12-18T03:15:48;59.65;;;22.70;;
22144;SDS011;11238;48.730;11.566;2022-12-18T03:18:21;59.00;;;22.65;;
22144;SDS011;11238;48.730;11.566;2022-12-18T03:20:53;55.95;;;22.02;;
22144;SDS011;11238;48.730;11.566;2022-12-18T03:23:24;45.22;;;16.58;;
22144;SDS011;11238;48.730;11.566;2022-12-18T03:25:56;59.22;;;22.27;;
22144;SDS011;11238;48.730;11.566;2022-12-18T03:28:25;55.85;;;22.98;;
22144;SDS011;11238;48.730;11.566;2022-12-18T03:30:59;60.13;;;23.38;;
22144;SDS011;11238;48.730;11.566;2022-12-18T03:33:35;57.45;;;22.10;;
22144;SDS011;11238;48.730;11.566;2022-12-18T03:36:07;58.47;;;22.83;;
22144;SDS011;11238;48.730;11.566;2022-12-18T03:38:33;57.35;;;22.90;;
22144;SDS011;11238;48.730;11.566;2022-12-18T03:41:02;52.75;;;21.30;;
22144;SDS011;11238;48.730;11.566;2022-12-18T03:47:13;58.03;;;21.95;;
22144;SDS011;11238;48.730;11.566;2022-12-18T03:50:16;53.72;;;21.75;;
22144;SDS011;11238;48.730;11.566;2022-12-18T03:53:00;49.67;;;21.60;;
22144;SDS011;11238;48.730;11.566;2022-12-18T03:55:47;55.85;;;22.73;;
22144;SDS011;11238;48.730;11.566;2022-12-18T03:58:17;59.30;;;21.83;;
22144;SDS011;11238;48.730;11.566;2022-12-18T04:01:09;55.47;;;22.30;;
22144;SDS011;11238;48.730;11.566;2022-12-18T04:03:39;60.13;;;22.55;;
22144;SDS011;11238;48.730;11.566;2022-12-18T04:06:06;61.05;;;22.80;;
22144;SDS011;11238;48.730;11.566;2022-12-18T04:08:33;56.22;;;22.10;;
22144;SDS011;11238;48.730;11.566;2022-12-18T04:11:04;60.40;;;22.98;;
22144;SDS011;11238;48.730;11.566;2022-12-18T04:13:35;51.45;;;22.42;;
22144;SDS011;11238;48.730;11.566;2022-12-18T04:16:06;61.80;;;22.40;;
22144;SDS011;11238;48.730;11.566;2022-12-18T04:18:32;49.78;;;20.25;;
22144;SDS011;11238;48.730;11.566;2022-12-18T04:21:00;63.00;;;23.83;;
22144;SDS011;11238;48.730;11.566;2022-12-18T04:23:26;55.92;;;23.48;;
22144;SDS011;11238;48.730;11.566;2022-12-18T04:25:55;60.70;;;22.38;;
22144;SDS011;11238;48.730;11.566;2022-12-18T04:28:36;58.17;;;23.30;;
22144;SDS011;11238;48.730;11.566;2022-12-18T04:31:02;61.20;;;22.65;;
22144;SDS011;11238;48.730;11.566;2022-12-18T04:33:28;59.83;;;24.02;;
22144;SDS011;11238;48.730;11.566;2022-12-18T04:35:54;61.10;;;23.50;;
22144;SDS011;11238;48.730;11.566;2022-12-18T04:38:21;60.08;;;22.90;;
22144;SDS011;11238;48.730;11.566;2022-12-18T04:40:53;56.20;;;21.10;;
22144;SDS011;11238;48.730;11.566;2022-12-18T04:43:24;52.13;;;21.58;;
22144;SDS011;11238;48.730;11.566;2022-12-18T04:45:50;64.07;;;22.92;;
22144;SDS011;11238;48.730;11.566;2022-12-18T04:48:16;58.97;;;22.40;;
22144;SDS011;11238;48.730;11.566;2022-12-18T04:50:42;55.05;;;22.70;;
22144;SDS011;11238;48.730;11.566;2022-12-18T04:53:08;53.45;;;22.17;;
22144;SDS011;11238;48.730;11.566;2022-12-18T04:55:34;55.30;;;21.85;;
22144;SDS011;11238;48.730;11.566;2022-12-18T04:57:59;52.53;;;21.95;;
22144;SDS011;11238;48.730;11.566;2022-12-18T05:00:25;53.33;;;20.92;;
22144;SDS011;11238;48.730;11.566;2022-12-18T05:02:51;46.63;;;19.73;;
22144;SDS011;11238;48.730;11.566;2022-12-18T05:05:17;56.80;;;21.08;;
22144;SDS011;11238;48.730;11.566;2022-12-18T05:07:43;54.72;;;21.38;;
22144;SDS011;11238;48.730;11.566;2022-12-18T05:10:09;51.83;;;21.40;;
22144;SDS011;11238;48.730;11.566;2022-12-18T05:12:35;48.88;;;19.65;;
22144;SDS011;11238;48.730;11.566;2022-12-18T05:15:21;53.55;;;20.80;;
22144;SDS011;11238;48.730;11.566;2022-12-18T05:17:47;54.65;;;21.20;;
22144;SDS011;11238;48.730;11.566;2022-12-18T05:20:12;49.17;;;21.30;;
22144;SDS011;11238;48.730;11.566;2022-12-18T05:22:38;52.50;;;19.75;;
22144;SDS011;11238;48.730;11.566;2022-12-18T05:25:04;53.50;;;21.90;;
22144;SDS011;11238;48.730;11.566;2022-12-18T05:27:30;48.35;;;20.63;;
22144;SDS011;11238;48.730;11.566;2022-12-18T05:29:56;54.00;;;22.17;;
22144;SDS011;11238;48.730;11.566;2022-12-18T05:32:22;48.15;;;20.92;;
22144;SDS011;11238;48.730;11.566;2022-12-18T05:34:48;55.10;;;21.92;;
22144;SDS011;11238;48.730;11.566;2022-12-18T05:37:14;58.45;;;23.90;;
22144;SDS011;11238;48.730;11.566;2022-12-18T05:39:40;57.30;;;22.67;;
22144;SDS011;11238;48.730;11.566;2022-12-18T05:42:05;55.05;;;21.77;;
22144;SDS011;11238;48.730;11.566;2022-12-18T05:44:31;56.05;;;22.63;;
22144;SDS011;11238;48.730;11.566;2022-12-18T05:46:57;59.95;;;23.77;;
22144;SDS011;11238;48.730;11.566;2022-12-18T05:49:23;64.47;;;25.08;;
22144;SDS011;11238;48.730;11.566;2022-12-18T05:51:49;59.70;;;22.85;;
22144;SDS011;11238;48.730;11.566;2022-12-18T05:54:15;52.45;;;21.67;;
22144;SDS011;11238;48.730;11.566;2022-12-18T05:56:41;48.00;;;20.25;;
22144;SDS011;11238;48.730;11.566;2022-12-18T05:59:07;48.83;;;20.48;;
22144;SDS011;11238;48.730;11.566;2022-12-18T06:01:32;48.53;;;19.23;;
22144;SDS011;11238;48.730;11.566;2022-12-18T06:03:58;43.35;;;19.02;;
22144;SDS011;11238;48.730;11.566;2022-12-18T06:06:26;46.55;;;19.35;;
22144;SDS011;11238;48.730;11.566;2022-12-18T06:08:53;51.08;;;20.23;;
22144;SDS011;11238;48.730;11.566;2022-12-18T06:11:21;48.78;;;19.38;;
22144;SDS011;11238;48.730;11.566;2022-12-18T06:13:52;47.90;;;19.98;;
22144;SDS011;11238;48.730;11.566;2022-12-18T06:16:18;44.45;;;18.88;;
22144;SDS011;11238;48.730;11.566;2022-12-18T06:18:44;44.67;;;19.88;;
22144;SDS011;11238;48.730;11.566;2022-12-18T06:21:10;51.10;;;21.05;;
22144;SDS011;11238;48.730;11.566;2022-12-18T06:23:35;53.90;;;21.27;;
22144;SDS011;11238;48.730;11.566;2022-12-18T06:26:05;53.63;;;22.00;;
22144;SDS011;11238;48.730;11.566;2022-12-18T06:28:33;60.90;;;25.70;;
22144;SDS011;11238;48.730;11.566;2022-12-18T06:30:58;55.50;;;22.55;;
22144;SDS011;11238;48.730;11.566;2022-12-18T06:33:27;71.63;;;33.55;;
22144;SDS011;11238;48.730;11.566;2022-12-18T06:35:53;58.90;;;22.70;;
22144;SDS011;11238;48.730;11.566;2022-12-18T06:38:24;75.03;;;32.45;;
22144;SDS011;11238;48.730;11.566;2022-12-18T06:40:50;57.28;;;22.92;;
22144;SDS011;11238;48.730;11.566;2022-12-18T06:43:15;52.70;;;23.40;;
22144;SDS011;11238;48.730;11.566;2022-12-18T06:45:41;54.10;;;22.45;;
22144;SDS011;11238;48.730;11.566;2022-12-18T06:48:07;75.38;;;31.77;;
22144;SDS011;11238;48.730;11.566;2022-12-18T06:50:33;92.82;;;37.22;;
22144;SDS011;11238;48.730;11.566;2022-12-18T06:52:59;173.15;;;59.13;;
22144;SDS011;11238;48.730;11.566;2022-12-18T06:55:25;275.50;;;97.63;;
22144;SDS011;11238;48.730;11.566;2022-12-18T06:57:50;243.70;;;78.60;;
22144;SDS011;11238;48.730;11.566;2022-12-18T07:00:17;86.28;;;35.65;;
22144;SDS011;11238;48.730;11.566;2022-12-18T07:02:42;65.75;;;27.85;;
22144;SDS011;11238;48.730;11.566;2022-12-18T07:05:08;77.47;;;32.97;;
22144;SDS011;11238;48.730;11.566;2022-12-18T07:07:34;88.13;;;38.83;;
22144;SDS011;11238;48.730;11.566;2022-12-18T07:10:00;83.38;;;37.33;;
22144;SDS011;11238;48.730;11.566;2022-12-18T07:12:27;74.00;;;31.65;;
22144;SDS011;11238;48.730;11.566;2022-12-18T07:14:52;71.53;;;29.98;;
22144;SDS011;11238;48.730;11.566;2022-12-18T07:17:18;59.75;;;24.65;;
22144;SDS011;11238;48.730;11.566;2022-12-18T07:19:43;55.20;;;22.92;;
22144;SDS011;11238;48.730;11.566;2022-12-18T07:22:10;56.60;;;22.73;;
22144;SDS011;11238;48.730;11.566;2022-12-18T07:24:35;62.95;;;24.48;;
22144;SDS011;11238;48.730;11.566;2022-12-18T07:27:01;57.75;;;23.48;;
22144;SDS011;11238;48.730;11.566;2022-12-18T07:29:27;55.78;;;23.90;;
22144;SDS011;11238;48.730;11.566;2022-12-18T07:31:53;56.78;;;23.33;;
22144;SDS011;11238;48.730;11.566;2022-12-18T07:34:19;53.35;;;23.52;;
22144;SDS011;11238;48.730;11.566;2022-12-18T07:36:45;56.35;;;23.40;;
22144;SDS011;11238;48.730;11.566;2022-12-18T07:39:11;55.63;;;23.10;;
22144;SDS011;11238;48.730;11.566;2022-12-18T07:41:37;53.22;;;23.52;;
22144;SDS011;11238;48.730;11.566;2022-12-18T07:44:11;58.47;;;23.92;;
22144;SDS011;11238;48.730;11.566;2022-12-18T07:46:37;57.45;;;24.40;;
22144;SDS011;11238;48.730;11.566;2022-12-18T07:49:04;82.28;;;34.92;;
22144;SDS011;11238;48.730;11.566;2022-12-18T07:51:29;77.72;;;32.13;;
22144;SDS011;11238;48.730;11.566;2022-12-18T07:53:56;63.50;;;28.58;;
22144;SDS011;11238;48.730;11.566;2022-12-18T07:56:22;64.65;;;28.23;;
22144;SDS011;11238;48.730;11.566;2022-12-18T07:58:48;69.30;;;31.70;;
22144;SDS011;11238;48.730;11.566;2022-12-18T08:01:13;59.42;;;26.65;;
22144;SDS011;11238;48.730;11.566;2022-12-18T08:03:39;57.78;;;27.00;;
22144;SDS011;11238;48.730;11.566;2022-12-18T08:06:07;61.80;;;27.50;;
22144;SDS011;11238;48.730;11.566;2022-12-18T08:08:34;59.08;;;25.40;;
22144;SDS011;11238;48.730;11.566;2022-12-18T08:11:02;48.90;;;21.83;;
22144;SDS011;11238;48.730;11.566;2022-12-18T08:13:31;50.22;;;22.00;;
22144;SDS011;11238;48.730;11.566;2022-12-18T08:16:00;49.70;;;22.23;;
22144;SDS011;11238;48.730;11.566;2022-12-18T08:18:28;54.20;;;23.00;;
22144;SDS011;11238;48.730;11.566;2022-12-18T08:20:54;51.92;;;22.77;;
22144;SDS011;11238;48.730;11.566;2022-12-18T08:23:23;55.22;;;22.73;;
22144;SDS011;11238;48.730;11.566;2022-12-18T08:25:49;50.28;;;21.27;;
22144;SDS011;11238;48.730;11.566;2022-12-18T08:35:53;45.25;;;18.17;;
22144;SDS011;11238;48.730;11.566;2022-12-18T08:38:19;44.95;;;20.13;;
22144;SDS011;11238;48.730;11.566;2022-12-18T08:40:45;45.22;;;20.23;;
22144;SDS011;11238;48.730;11.566;2022-12-18T08:43:11;40.97;;;19.63;;
22144;SDS011;11238;48.730;11.566;2022-12-18T08:45:59;32.85;;;15.57;;
22144;SDS011;11238;48.730;11.566;2022-12-18T08:48:25;46.05;;;20.88;;
22144;SDS011;11238;48.730;11.566;2022-12-18T08:50:55;43.20;;;20.23;;
22144;SDS011;11238;48.730;11.566;2022-12-18T08:53:21;34.15;;;14.48;;
22144;SDS011;11238;48.730;11.566;2022-12-18T08:55:47;42.63;;;19.55;;
22144;SDS011;11238;48.730;11.566;2022-12-18T08:58:13;44.20;;;20.90;;
22144;SDS011;11238;48.730;11.566;2022-12-18T09:00:39;46.15;;;21.17;;
22144;SDS011;11238;48.730;11.566;2022-12-18T09:03:05;52.13;;;21.92;;
22144;SDS011;11238;48.730;11.566;2022-12-18T09:05:35;45.45;;;19.83;;
22144;SDS011;11238;48.730;11.566;2022-12-18T09:08:01;47.15;;;20.65;;
22144;SDS011;11238;48.730;11.566;2022-12-18T09:10:27;52.80;;;22.90;;
22144;SDS011;11238;48.730;11.566;2022-12-18T09:12:53;58.78;;;24.80;;
22144;SDS011;11238;48.730;11.566;2022-12-18T09:15:41;47.15;;;22.13;;
22144;SDS011;11238;48.730;11.566;2022-12-18T09:18:08;56.33;;;24.52;;
22144;SDS011;11238;48.730;11.566;2022-12-18T09:20:35;50.08;;;23.48;;
22144;SDS011;11238;48.730;11.566;2022-12-18T09:23:02;51.25;;;23.45;;
22144;SDS011;11238;48.730;11.566;2022-12-18T09:25:31;49.92;;;23.52;;
22144;SDS011;11238;48.730;11.566;2022-12-18T09:27:59;46.38;;;22.08;;
22144;SDS011;11238;48.730;11.566;2022-12-18T09:30:25;43.30;;;19.80;;
22144;SDS011;11238;48.730;11.566;2022-12-18T09:32:52;41.38;;;20.33;;
22144;SDS011;11238;48.730;11.566;2022-12-18T09:35:20;44.45;;;20.85;;
22144;SDS011;11238;48.730;11.566;2022-12-18T09:37:46;41.75;;;19.40;;
22144;SDS011;11238;48.730;11.566;2022-12-18T09:40:16;47.55;;;21.05;;
22144;SDS011;11238;48.730;11.566;2022-12-18T09:42:45;45.47;;;21.40;;
22144;SDS011;11238;48.730;11.566;2022-12-18T09:45:16;44.17;;;20.35;;
22144;SDS011;11238;48.730;11.566;2022-12-18T09:47:43;45.20;;;21.00;;
22144;SDS011;11238;48.730;11.566;2022-12-18T09:50:24;41.22;;;19.85;;
22144;SDS011;11238;48.730;11.566;2022-12-18T09:52:58;41.67;;;19.23;;
22144;SDS011;11238;48.730;11.566;2022-12-18T09:55:31;43.50;;;18.80;;
22144;SDS011;11238;48.730;11.566;2022-12-18T09:58:04;43.78;;;19.10;;
22144;SDS011;11238;48.730;11.566;2022-12-18T10:00:37;47.00;;;20.90;;
22144;SDS011;11238;48.730;11.566;2022-12-18T10:03:08;41.38;;;20.08;;
22144;SDS011;11238;48.730;11.566;2022-12-18T10:08:18;44.25;;;19.15;;
22144;SDS011;11238;48.730;11.566;2022-12-18T10:10:58;43.55;;;20.30;;
22144;SDS011;11238;48.730;11.566;2022-12-18T10:13:52;46.67;;;19.05;;
22144;SDS011;11238;48.730;11.566;2022-12-18T10:16:33;41.22;;;18.23;;
22144;SDS011;11238;48.730;11.566;2022-12-18T10:19:35;39.28;;;18.65;;
22144;SDS011;11238;48.730;11.566;2022-12-18T10:27:17;37.25;;;18.85;;
22144;SDS011;11238;48.730;11.566;2022-12-18T10:29:46;43.13;;;20.52;;
22144;SDS011;11238;48.730;11.566;2022-12-18T10:32:23;40.85;;;18.52;;
22144;SDS011;11238;48.730;11.566;2022-12-18T10:34:53;41.10;;;18.90;;
22144;SDS011;11238;48.730;11.566;2022-12-18T10:37:22;46.97;;;21.00;;
22144;SDS011;11238;48.730;11.566;2022-12-18T10:42:36;47.63;;;21.73;;
22144;SDS011;11238;48.730;11.566;2022-12-18T10:45:07;50.03;;;21.63;;
22144;SDS011;11238;48.730;11.566;2022-12-18T10:47:51;41.78;;;19.25;;
22144;SDS011;11238;48.730;11.566;2022-12-18T10:50:26;35.97;;;17.13;;
22144;SDS011;11238;48.730;11.566;2022-12-18T10:53:02;43.83;;;18.83;;
22144;SDS011;11238;48.730;11.566;2022-12-18T10:55:31;41.35;;;20.13;;
22144;SDS011;11238;48.730;11.566;2022-12-18T11:01:06;49.15;;;20.45;;
22144;SDS011;11238;48.730;11.566;2022-12-18T11:06:11;45.80;;;21.15;;
22144;SDS011;11238;48.730;11.566;2022-12-18T11:08:42;42.72;;;18.65;;
22144;SDS011;11238;48.730;11.566;2022-12-18T11:11:15;43.95;;;19.75;;
22144;SDS011;11238;48.730;11.566;2022-12-18T11:16:21;43.92;;;21.00;;
22144;SDS011;11238;48.730;11.566;2022-12-18T11:18:46;43.92;;;20.33;;
22144;SDS011;11238;48.730;11.566;2022-12-18T11:21:13;48.55;;;22.38;;
22144;SDS011;11238;48.730;11.566;2022-12-18T11:23:52;53.63;;;26.42;;
22144;SDS011;11238;48.730;11.566;2022-12-18T11:26:19;46.33;;;22.15;;
22144;SDS011;11238;48.730;11.566;2022-12-18T11:28:49;43.88;;;21.38;;
22144;SDS011;11238;48.730;11.566;2022-12-18T11:36:23;44.45;;;20.52;;
22144;SDS011;11238;48.730;11.566;2022-12-18T11:38:53;42.58;;;19.58;;
22144;SDS011;11238;48.730;11.566;2022-12-18T11:41:32;35.90;;;16.92;;
22144;SDS011;11238;48.730;11.566;2022-12-18T11:44:32;40.30;;;19.58;;
22144;SDS011;11238;48.730;11.566;2022-12-18T11:49:54;36.40;;;16.55;;
22144;SDS011;11238;48.730;11.566;2022-12-18T11:52:26;43.55;;;18.33;;
22144;SDS011;11238;48.730;11.566;2022-12-18T11:55:00;42.95;;;19.52;;
22144;SDS011;11238;48.730;11.566;2022-12-18T11:57:42;37.95;;;18.42;;
22144;SDS011;11238;48.730;11.566;2022-12-18T12:00:25;39.72;;;19.45;;
22144;SDS011;11238;48.730;11.566;2022-12-18T12:16:57;37.50;;;18.38;;
22144;SDS011;11238;48.730;11.566;2022-12-18T12:22:46;38.00;;;16.05;;
22144;SDS011;11238;48.730;11.566;2022-12-18T12:31:07;35.90;;;18.13;;
22144;SDS011;11238;48.730;11.566;2022-12-18T12:33:51;36.97;;;18.08;;
22144;SDS011;11238;48.730;11.566;2022-12-18T12:41:54;43.22;;;18.85;;
22144;SDS011;11238;48.730;11.566;2022-12-18T12:44:49;37.38;;;17.45;;
22144;SDS011;11238;48.730;11.566;2022-12-18T12:49:51;34.17;;;17.23;;
22144;SDS011;11238;48.730;11.566;2022-12-18T12:52:23;34.47;;;16.00;;
22144;SDS011;11238;48.730;11.566;2022-12-18T12:54:59;31.77;;;11.82;;
22144;SDS011;11238;48.730;11.566;2022-12-18T12:57:40;33.88;;;15.98;;
22144;SDS011;11238;48.730;11.566;2022-12-18T13:00:18;37.00;;;18.60;;
22144;SDS011;11238;48.730;11.566;2022-12-18T13:08:27;72.75;;;33.78;;
22144;SDS011;11238;48.730;11.566;2022-12-18T13:10:55;58.17;;;27.85;;
22144;SDS011;11238;48.730;11.566;2022-12-18T13:13:49;56.72;;;28.23;;
22144;SDS011;11238;48.730;11.566;2022-12-18T13:16:20;41.95;;;19.88;;
22144;SDS011;11238;48.730;11.566;2022-12-18T13:18:51;38.15;;;19.08;;
22144;SDS011;11238;48.730;11.566;2022-12-18T13:21:29;261.73;;;92.97;;
22144;SDS011;11238;48.730;11.566;2022-12-18T13:24:13;71.20;;;31.67;;
22144;SDS011;11238;48.730;11.566;2022-12-18T13:26:45;49.42;;;22.70;;
22144;SDS011;11238;48.730;11.566;2022-12-18T13:29:11;40.97;;;20.08;;
22144;SDS011;11238;48.730;11.566;2022-12-18T13:32:21;40.45;;;19.75;;
22144;SDS011;11238;48.730;11.566;2022-12-18T13:34:51;42.58;;;19.85;;
22144;SDS011;11238;48.730;11.566;2022-12-18T13:37:53;40.78;;;20.10;;
22144;SDS011;11238;48.730;11.566;2022-12-18T13:40:46;44.17;;;20.25;;
22144;SDS011;11238;48.730;11.566;2022-12-18T13:45:49;42.80;;;21.10;;
22144;SDS011;11238;48.730;11.566;2022-12-18T13:48:25;40.40;;;19.38;;
22144;SDS011;11238;48.730;11.566;2022-12-18T13:50:55;41.65;;;19.58;;
22144;SDS011;11238;48.730;11.566;2022-12-18T13:53:28;43.88;;;20.90;;
22144;SDS011;11238;48.730;11.566;2022-12-18T13:55:58;37.78;;;19.15;;
22144;SDS011;11238;48.730;11.566;2022-12-18T13:58:24;39.35;;;18.92;;
22144;SDS011;11238;48.730;11.566;2022-12-18T14:00:49;43.05;;;20.42;;
22144;SDS011;11238;48.730;11.566;2022-12-18T14:03:23;40.45;;;19.85;;
22144;SDS011;11238;48.730;11.566;2022-12-18T14:06:01;36.85;;;18.15;;
22144;SDS011;11238;48.730;11.566;2022-12-18T14:08:38;37.33;;;17.92;;
22144;SDS011;11238;48.730;11.566;2022-12-18T14:11:05;36.60;;;18.60;;
22144;SDS011;11238;48.730;11.566;2022-12-18T14:13:37;38.83;;;20.08;;
22144;SDS011;11238;48.730;11.566;2022-12-18T14:16:06;38.80;;;18.15;;
22144;SDS011;11238;48.730;11.566;2022-12-18T14:18:50;35.80;;;17.77;;
22144;SDS011;11238;48.730;11.566;2022-12-18T14:23:49;31.25;;;16.65;;
22144;SDS011;11238;48.730;11.566;2022-12-18T14:26:49;33.90;;;17.55;;
22144;SDS011;11238;48.730;11.566;2022-12-18T14:29:26;33.63;;;17.25;;
22144;SDS011;11238;48.730;11.566;2022-12-18T14:34:43;40.92;;;20.40;;
22144;SDS011;11238;48.730;11.566;2022-12-18T14:37:10;54.30;;;27.02;;
22144;SDS011;11238;48.730;11.566;2022-12-18T14:39:37;38.58;;;18.90;;
22144;SDS011;11238;48.730;11.566;2022-12-18T14:42:04;43.15;;;22.70;;
22144;SDS011;11238;48.730;11.566;2022-12-18T14:44:30;38.47;;;17.85;;
22144;SDS011;11238;48.730;11.566;2022-12-18T14:46:56;39.20;;;20.42;;
22144;SDS011;11238;48.730;11.566;2022-12-18T14:49:31;34.72;;;18.13;;
22144;SDS011;11238;48.730;11.566;2022-12-18T14:52:03;34.80;;;18.65;;
22144;SDS011;11238;48.730;11.566;2022-12-18T14:54:32;37.47;;;18.97;;
22144;SDS011;11238;48.730;11.566;2022-12-18T14:57:15;37.65;;;19.98;;
22144;SDS011;11238;48.730;11.566;2022-12-18T14:59:49;38.42;;;19.67;;
22144;SDS011;11238;48.730;11.566;2022-12-18T15:02:25;37.97;;;19.13;;
22144;SDS011;11238;48.730;11.566;2022-12-18T15:05:00;32.97;;;17.08;;
22144;SDS011;11238;48.730;11.566;2022-12-18T15:07:41;33.30;;;16.00;;
22144;SDS011;11238;48.730;11.566;2022-12-18T15:10:20;35.42;;;15.82;;
22144;SDS011;11238;48.730;11.566;2022-12-18T15:17:59;37.83;;;18.23;;
22144;SDS011;11238;48.730;11.566;2022-12-18T15:20:25;39.30;;;19.85;;
22144;SDS011;11238;48.730;11.566;2022-12-18T15:22:52;33.80;;;16.88;;
22144;SDS011;11238;48.730;11.566;2022-12-18T15:25:30;33.88;;;17.00;;
22144;SDS011;11238;48.730;11.566;2022-12-18T15:27:59;36.70;;;15.98;;
22144;SDS011;11238;48.730;11.566;2022-12-18T15:30:26;39.80;;;18.30;;
22144;SDS011;11238;48.730;11.566;2022-12-18T15:32:52;37.35;;;18.02;;
22144;SDS011;11238;48.730;11.566;2022-12-18T15:35:42;38.13;;;17.50;;
22144;SDS011;11238;48.730;11.566;2022-12-18T15:38:08;38.50;;;18.60;;
22144;SDS011;11238;48.730;11.566;2022-12-18T15:40:34;43.33;;;18.98;;
22144;SDS011;11238;48.730;11.566;2022-12-18T15:43:00;34.95;;;18.42;;
22144;SDS011;11238;48.730;11.566;2022-12-18T15:45:44;33.42;;;18.08;;
22144;SDS011;11238;48.730;11.566;2022-12-18T15:48:15;34.72;;;18.05;;
22144;SDS011;11238;48.730;11.566;2022-12-18T15:50:46;38.63;;;19.75;;
22144;SDS011;11238;48.730;11.566;2022-12-18T15:53:13;36.20;;;17.60;;
22144;SDS011;11238;48.730;11.566;2022-12-18T15:55:38;36.92;;;17.58;;
22144;SDS011;11238;48.730;11.566;2022-12-18T15:58:23;34.92;;;17.60;;
22144;SDS011;11238;48.730;11.566;2022-12-18T16:00:49;32.17;;;14.35;;
22144;SDS011;11238;48.730;11.566;2022-12-18T16:03:14;37.40;;;17.58;;
22144;SDS011;11238;48.730;11.566;2022-12-18T16:05:40;37.28;;;17.38;;